Time;durP1;ratioP1;P1;durP2;ratioP2;P2;SDS_P1;SDS_P2;PMS_P1;PMS_P2;Temp;Humidity;BMP_temperature;BMP_pressure;BME280_temperature;BME280_humidity;BME280_pressure;Samples;Min_cycle;Max_cycle;Signal;HPM_P1;HPM_P2
2022/02/14 10:52:46;;;;;;;4.73;0.90;;;11.30;99.90;;;;;;5011542;28;20205;-88
2022/02/14 10:55:18;;;;;;;6.00;1.00;;;11.30;99.90;;;;;;5016116;28;20247;-89
2022/02/14 10:57:45;;;;;;;5.67;1.40;;;11.50;99.90;;;;;;5016386;28;20213;-88
2022/02/14 11:00:14;;;;;;;6.37;1.10;;;12.10;99.90;;;;;;4999237;28;20256;-89
2022/02/14 11:02:43;;;;;;;3.97;0.90;;;12.70;99.90;;;;;;4998915;28;20682;-90
2022/02/14 11:05:10;;;;;;;3.87;0.80;;;13.40;99.90;;;;;;4999105;28;20179;-89
2022/02/14 11:07:37;;;;;;;6.00;1.23;;;13.30;99.90;;;;;;4999190;28;20217;-87
2022/02/14 11:10:07;;;;;;;5.27;1.43;;;13.00;99.90;;;;;;4999248;28;20178;-89
2022/02/14 11:12:36;;;;;;;5.17;1.10;;;12.50;99.90;;;;;;4998950;28;20181;-88
2022/02/14 11:15:06;;;;;;;5.60;1.30;;;12.20;99.90;;;;;;4998932;28;20197;-88
2022/02/14 11:17:34;;;;;;;6.87;1.67;;;12.10;99.90;;;;;;4999271;28;20209;-88
2022/02/14 11:20:06;;;;;;;7.27;1.40;;;12.50;99.90;;;;;;4998551;28;20189;-89
2022/02/14 11:22:43;;;;;;;8.70;1.87;;;12.70;99.90;;;;;;4998833;28;20273;-89
2022/02/14 11:25:26;;;;;;;3.97;1.30;;;13.10;99.90;;;;;;4998965;28;20279;-86
2022/02/14 11:28:12;;;;;;;4.90;1.43;;;12.90;99.90;;;;;;5014808;28;20618;-89
2022/02/14 11:30:37;;;;;;;5.50;1.47;;;13.30;99.90;;;;;;5014836;28;20634;-87
2022/02/14 11:33:03;;;;;;;8.43;2.33;;;13.40;99.90;;;;;;4998539;28;20213;-87
2022/02/14 11:35:29;;;;;;;7.43;1.40;;;14.00;99.90;;;;;;5016194;28;20641;-90
2022/02/14 11:38:01;;;;;;;5.33;1.50;;;14.30;99.90;;;;;;4998447;28;20208;-89
2022/02/14 11:40:36;;;;;;;3.73;1.30;;;13.60;99.90;;;;;;4998372;28;20637;-89
2022/02/14 11:43:34;;;;;;;8.30;1.80;;;13.60;99.90;;;;;;5014489;28;20188;-89
2022/02/14 11:46:15;;;;;;;7.70;1.73;;;13.90;99.90;;;;;;4989688;28;20275;-88
2022/02/14 11:48:41;;;;;;;5.17;1.40;;;13.80;99.90;;;;;;4998369;28;20184;-91
2022/02/14 11:51:09;;;;;;;9.73;1.60;;;13.80;99.90;;;;;;4998348;28;20197;-91
2022/02/14 11:53:36;;;;;;;6.00;1.60;;;13.50;99.90;;;;;;4997896;28;20218;-88
2022/02/14 11:56:39;;;;;;;8.63;1.20;;;13.20;99.90;;;;;;5014789;28;20184;-88
2022/02/14 11:59:05;;;;;;;4.57;1.43;;;14.30;99.90;;;;;;4959854;28;20564;-88
2022/02/14 12:01:37;;;;;;;10.33;1.60;;;15.00;99.90;;;;;;5015798;28;20215;-89
2022/02/14 12:04:37;;;;;;;6.97;1.67;;;14.80;99.90;;;;;;5014220;28;20192;-88
2022/02/14 12:07:38;;;;;;;9.23;1.40;;;14.40;99.90;;;;;;5014520;28;20641;-88
2022/02/14 12:10:27;;;;;;;5.83;1.03;;;13.90;99.90;;;;;;4997964;28;20176;-87
2022/02/14 12:12:54;;;;;;;6.60;1.37;;;13.60;99.90;;;;;;5015336;28;20176;-90
2022/02/14 12:21:05;;;;;;;8.50;1.50;;;12.70;99.90;;;;;;5015907;28;20197;-89
2022/02/14 12:23:35;;;;;;;6.50;1.30;;;12.40;99.90;;;;;;5014360;28;20339;-89
2022/02/14 12:26:01;;;;;;;4.03;1.40;;;12.40;99.90;;;;;;4997941;28;20318;-88
2022/02/14 12:28:27;;;;;;;4.80;1.50;;;12.80;99.90;;;;;;4997562;28;20627;-88
2022/02/14 12:30:56;;;;;;;7.23;1.43;;;13.30;99.90;;;;;;5013893;28;20588;-92
2022/02/14 12:33:22;;;;;;;8.23;2.13;;;12.80;99.90;;;;;;4997550;28;20647;-89
2022/02/14 12:35:52;;;;;;;9.30;2.17;;;12.80;99.90;;;;;;4997529;28;20193;-89
2022/02/14 12:38:18;;;;;;;6.70;2.50;;;12.70;99.90;;;;;;5014626;28;20245;-88
2022/02/14 12:41:05;;;;;;;10.50;1.33;;;12.70;99.90;;;;;;4996984;28;20206;-90
2022/02/14 12:43:44;;;;;;;5.90;1.27;;;12.40;99.90;;;;;;4997382;28;20232;-88
2022/02/14 12:46:21;;;;;;;12.33;2.60;;;12.30;99.90;;;;;;5015061;28;20221;-88
2022/02/14 12:48:52;;;;;;;8.90;1.63;;;12.20;99.90;;;;;;5013588;28;20275;-89
2022/02/14 12:51:32;;;;;;;8.50;2.47;;;12.10;99.90;;;;;;4997221;28;20211;-90
2022/02/14 12:54:04;;;;;;;9.23;1.47;;;12.10;99.90;;;;;;4996895;28;20185;-89
2022/02/14 12:56:29;;;;;;;4.53;1.27;;;12.10;99.90;;;;;;4996970;28;20189;-89
2022/02/14 12:59:00;;;;;;;5.83;1.47;;;12.10;99.90;;;;;;5014440;28;20610;-88
2022/02/14 13:01:36;;;;;;;7.03;1.40;;;12.30;99.90;;;;;;4997556;28;20217;-87
2022/02/14 13:04:05;;;;;;;9.30;2.50;;;13.50;99.90;;;;;;4997047;28;20188;-89
2022/02/14 13:06:52;;;;;;;6.20;1.80;;;14.70;99.90;;;;;;4997094;28;20175;-90
2022/02/14 13:09:46;;;;;;;8.10;1.50;;;16.40;99.60;;;;;;5013753;28;20186;-88
2022/02/14 13:12:12;;;;;;;7.63;1.70;;;16.00;99.10;;;;;;4979885;28;20177;-88
2022/02/14 13:14:45;;;;;;;8.80;1.70;;;15.40;99.90;;;;;;4996847;28;20597;-90
2022/02/14 13:17:12;;;;;;;8.53;3.13;;;14.60;99.90;;;;;;5014282;28;20199;-89
2022/02/14 13:19:50;;;;;;;10.37;2.07;;;13.80;99.90;;;;;;4996971;28;20179;-87
2022/02/14 13:22:35;;;;;;;9.23;1.70;;;13.20;99.90;;;;;;5013942;28;20252;-89
2022/02/14 13:25:03;;;;;;;11.03;3.13;;;13.10;99.90;;;;;;5014088;28;20192;-89
2022/02/14 13:27:32;;;;;;;22.90;9.43;;;13.60;99.90;;;;;;5014167;28;20182;-89
2022/02/14 13:30:11;;;;;;;5.03;1.23;;;13.50;99.90;;;;;;5013258;28;20648;-90
2022/02/14 13:32:39;;;;;;;5.30;1.27;;;14.30;99.90;;;;;;4996623;28;20201;-89
2022/02/14 13:35:06;;;;;;;4.83;1.30;;;14.40;99.90;;;;;;4997067;28;20180;-90
2022/02/14 13:37:44;;;;;;;5.63;1.23;;;14.60;99.90;;;;;;5014060;28;20201;-88
2022/02/14 13:40:28;;;;;;;8.10;1.20;;;16.00;98.80;;;;;;4997048;28;20184;-90
2022/02/14 13:42:57;;;;;;;7.03;1.77;;;16.90;97.60;;;;;;5013564;28;20215;-90
2022/02/14 13:46:12;;;;;;;5.57;1.27;;;16.80;97.30;;;;;;5012588;28;20181;-87
2022/02/14 13:48:46;;;;;;;5.97;1.50;;;15.90;98.00;;;;;;5013333;28;20194;-89
2022/02/14 13:51:24;;;;;;;7.40;1.43;;;15.00;99.00;;;;;;4995984;28;20302;-88
2022/02/14 13:53:59;;;;;;;7.30;1.40;;;13.70;99.90;;;;;;4996246;28;20212;-89
2022/02/14 13:56:26;;;;;;;7.50;1.33;;;13.40;99.90;;;;;;4996273;28;20264;-88
2022/02/14 13:58:54;;;;;;;8.37;1.57;;;13.20;99.90;;;;;;4996185;28;20224;-90
2022/02/14 14:01:33;;;;;;;9.70;1.50;;;13.10;99.90;;;;;;4995797;28;20201;-90
2022/02/14 14:04:24;;;;;;;9.73;1.93;;;13.30;99.90;;;;;;4996221;28;20195;-89
2022/02/14 14:06:52;;;;;;;5.30;1.43;;;13.30;99.90;;;;;;5012213;28;20603;-89
2022/02/14 14:09:18;;;;;;;6.93;1.70;;;12.80;99.90;;;;;;4996215;28;20185;-89
2022/02/14 14:11:44;;;;;;;7.43;1.77;;;12.80;99.90;;;;;;5013473;28;20185;-89
2022/02/14 14:14:32;;;;;;;7.33;1.50;;;12.70;99.90;;;;;;4996174;28;20205;-90
2022/02/14 14:16:58;;;;;;;7.73;1.10;;;12.80;99.90;;;;;;4995993;28;20257;-90
2022/02/14 14:19:24;;;;;;;3.83;1.30;;;12.80;99.90;;;;;;4996087;28;20296;-89
2022/02/14 14:21:51;;;;;;;8.23;1.83;;;12.80;99.90;;;;;;4995815;28;20610;-88
2022/02/14 14:24:20;;;;;;;7.47;1.30;;;12.90;99.90;;;;;;4996144;28;20191;-89
2022/02/14 14:26:46;;;;;;;7.97;1.50;;;13.00;99.90;;;;;;4995953;28;20188;-89
2022/02/14 14:29:13;;;;;;;6.07;1.30;;;12.80;99.90;;;;;;4998640;28;20186;-89
2022/02/14 14:31:39;;;;;;;4.87;1.00;;;12.70;99.90;;;;;;4999830;28;20190;-89
2022/02/14 14:34:05;;;;;;;3.07;0.87;;;12.10;99.90;;;;;;5000105;28;20261;-90
2022/02/14 14:36:30;;;;;;;4.93;1.00;;;11.60;99.90;;;;;;4999548;28;20315;-90
2022/02/14 14:38:56;;;;;;;3.77;1.30;;;11.10;99.90;;;;;;4999721;28;20220;-89
2022/02/14 14:41:22;;;;;;;3.30;1.10;;;10.90;99.90;;;;;;4999605;28;20174;-89
2022/02/14 14:43:48;;;;;;;3.13;1.23;;;10.90;99.90;;;;;;4999720;28;20280;-88
2022/02/14 14:46:14;;;;;;;6.40;1.10;;;11.00;99.90;;;;;;4999497;28;20184;-91
2022/02/14 14:48:39;;;;;;;5.37;1.20;;;11.00;99.90;;;;;;4999454;28;20548;-89
2022/02/14 14:51:05;;;;;;;5.60;1.63;;;11.00;99.90;;;;;;4998962;28;20221;-89
2022/02/14 14:53:31;;;;;;;8.27;1.73;;;11.20;99.90;;;;;;4999900;28;20185;-89
2022/02/14 14:55:56;;;;;;;7.10;1.60;;;11.30;99.90;;;;;;4999563;28;20174;-88
2022/02/14 14:58:22;;;;;;;5.83;1.57;;;11.50;99.90;;;;;;4998924;28;20224;-89
2022/02/14 15:00:48;;;;;;;6.50;1.77;;;11.60;99.90;;;;;;4999336;28;20244;-89
2022/02/14 15:03:14;;;;;;;9.87;2.00;;;11.70;99.90;;;;;;4999227;28;20236;-89
2022/02/14 15:05:40;;;;;;;7.50;2.07;;;11.70;99.90;;;;;;4999106;28;20174;-89
2022/02/14 15:08:06;;;;;;;4.07;1.63;;;11.60;99.90;;;;;;4999288;28;20185;-87
2022/02/14 15:10:32;;;;;;;6.97;1.67;;;11.60;99.90;;;;;;4999294;28;21056;-88
2022/02/14 15:12:59;;;;;;;11.07;2.07;;;11.50;99.90;;;;;;4998877;28;20189;-87
2022/02/14 15:15:25;;;;;;;7.40;1.73;;;11.70;99.90;;;;;;5015626;28;20212;-90
2022/02/14 15:17:51;;;;;;;5.13;1.53;;;11.80;99.90;;;;;;5016688;28;20240;-90
2022/02/14 15:20:16;;;;;;;5.37;1.80;;;11.90;99.90;;;;;;4998543;28;20198;-89
2022/02/14 15:22:42;;;;;;;16.40;1.90;;;11.90;99.90;;;;;;4998776;28;20173;-89
2022/02/14 15:25:08;;;;;;;7.87;1.53;;;11.70;99.90;;;;;;4998854;28;20188;-89
2022/02/14 15:27:34;;;;;;;4.10;1.20;;;11.60;99.90;;;;;;4998909;28;20189;-88
2022/02/14 15:30:00;;;;;;;4.33;1.37;;;11.30;99.90;;;;;;4999131;28;20169;-90
2022/02/14 15:32:27;;;;;;;9.00;1.80;;;11.30;99.90;;;;;;4998540;28;20185;-89
2022/02/14 15:34:52;;;;;;;3.27;1.40;;;11.60;99.90;;;;;;4998470;28;20235;-87
2022/02/14 15:37:18;;;;;;;5.73;1.07;;;12.20;99.90;;;;;;4998608;28;20209;-89
2022/02/14 15:39:44;;;;;;;3.23;1.37;;;12.70;99.90;;;;;;4997698;28;20239;-89
2022/02/14 15:42:11;;;;;;;6.43;1.70;;;13.30;99.90;;;;;;4998488;28;20186;-90
2022/02/14 15:44:38;;;;;;;6.47;1.17;;;14.20;99.90;;;;;;4998679;28;20227;-87
2022/02/14 15:47:04;;;;;;;4.73;1.33;;;14.90;99.90;;;;;;4998578;28;20187;-89
2022/02/14 15:49:34;;;;;;;5.50;1.80;;;14.90;99.90;;;;;;4998251;28;20596;-89
2022/02/14 15:52:00;;;;;;;8.60;1.40;;;15.00;99.90;;;;;;4998089;28;20204;-89
2022/02/14 15:54:25;;;;;;;5.30;1.53;;;15.50;99.90;;;;;;5015697;28;20180;-89
2022/02/14 15:56:51;;;;;;;4.83;1.37;;;16.00;99.50;;;;;;4998344;28;20188;-90
2022/02/14 15:59:17;;;;;;;5.10;1.33;;;16.20;99.50;;;;;;4998094;28;20213;-89
2022/02/14 16:01:42;;;;;;;7.13;1.30;;;16.40;98.80;;;;;;4998033;28;20737;-88
2022/02/14 16:04:08;;;;;;;10.17;4.13;;;15.50;98.40;;;;;;4998062;28;20178;-89
2022/02/14 16:06:35;;;;;;;6.27;1.70;;;14.80;99.90;;;;;;4998384;28;20174;-88
2022/02/14 16:09:02;;;;;;;5.77;1.40;;;14.10;99.90;;;;;;4997919;28;20176;-89
2022/02/14 16:11:27;;;;;;;6.30;1.60;;;13.60;99.90;;;;;;5015500;28;20184;-89
2022/02/14 16:13:53;;;;;;;3.30;1.23;;;13.20;99.90;;;;;;4997765;28;20187;-88
2022/02/14 16:16:19;;;;;;;6.63;2.57;;;13.20;99.90;;;;;;4997691;28;20188;-89
2022/02/14 16:18:45;;;;;;;11.33;4.47;;;13.00;99.90;;;;;;4997669;28;20217;-89
2022/02/14 16:21:12;;;;;;;6.70;1.93;;;12.90;99.90;;;;;;4997730;28;20185;-90
2022/02/14 16:23:37;;;;;;;32.87;13.70;;;12.80;99.90;;;;;;4997918;28;20626;-90
2022/02/14 16:26:03;;;;;;;9.87;2.13;;;12.60;99.90;;;;;;4997923;28;20177;-89
2022/02/14 16:28:29;;;;;;;9.43;1.70;;;12.60;99.90;;;;;;4997676;28;20188;-88
2022/02/14 16:30:55;;;;;;;6.93;1.93;;;12.40;99.90;;;;;;4997310;28;20180;-89
2022/02/14 16:33:21;;;;;;;8.30;1.40;;;12.20;99.90;;;;;;4997853;28;20185;-90
2022/02/14 16:35:50;;;;;;;7.50;1.40;;;12.10;99.90;;;;;;4997681;28;20173;-89
2022/02/14 16:38:16;;;;;;;3.83;1.30;;;12.10;99.90;;;;;;5014789;28;20205;-89
2022/02/14 16:40:42;;;;;;;3.27;1.73;;;11.90;99.90;;;;;;4997622;28;20549;-89
2022/02/14 16:43:08;;;;;;;11.83;1.90;;;11.60;99.90;;;;;;4997587;28;20165;-89
2022/02/14 16:45:34;;;;;;;9.47;1.90;;;11.60;99.90;;;;;;4997302;28;20589;-89
2022/02/14 16:47:59;;;;;;;8.37;2.17;;;11.50;99.90;;;;;;4997359;28;20227;-89
2022/02/14 16:50:25;;;;;;;10.13;2.63;;;11.50;99.90;;;;;;4996917;28;20196;-89
2022/02/14 16:52:52;;;;;;;7.27;1.37;;;11.40;99.90;;;;;;5014706;28;20165;-89
2022/02/14 16:55:19;;;;;;;7.23;1.70;;;11.20;99.90;;;;;;4997057;28;20184;-89
2022/02/14 16:57:46;;;;;;;9.53;1.93;;;11.30;99.90;;;;;;5014481;28;20203;-87
2022/02/14 17:00:14;;;;;;;6.20;1.97;;;11.40;99.90;;;;;;4997082;28;20534;-89
2022/02/14 17:02:41;;;;;;;5.47;1.70;;;11.40;99.90;;;;;;4996963;28;20293;-89
2022/02/14 17:05:07;;;;;;;5.63;1.93;;;11.20;99.90;;;;;;4997004;28;20239;-88
2022/02/14 17:07:33;;;;;;;8.40;2.27;;;11.30;99.90;;;;;;4996657;28;20649;-89
2022/02/14 17:10:00;;;;;;;7.70;1.80;;;11.30;99.90;;;;;;5014348;28;20653;-88
2022/02/14 17:12:26;;;;;;;10.97;2.10;;;11.20;99.90;;;;;;4996924;28;20231;-88
2022/02/14 17:14:52;;;;;;;7.37;2.17;;;11.30;99.90;;;;;;4996696;28;20244;-89
2022/02/14 17:17:18;;;;;;;12.13;2.10;;;11.20;99.90;;;;;;4996785;28;20201;-88
2022/02/14 17:19:43;;;;;;;9.60;1.90;;;11.20;99.90;;;;;;4997060;28;20193;-88
2022/02/14 17:22:09;;;;;;;10.37;1.80;;;11.20;99.90;;;;;;4996698;28;20181;-88
2022/02/14 17:24:34;;;;;;;7.37;1.70;;;11.20;99.90;;;;;;5013010;28;20215;-89
2022/02/14 17:27:00;;;;;;;5.80;1.63;;;11.20;99.90;;;;;;4996587;28;20180;-88
2022/02/14 17:29:26;;;;;;;13.00;2.70;;;11.10;99.90;;;;;;4996677;28;20176;-89
2022/02/14 17:31:52;;;;;;;8.23;2.37;;;11.00;99.90;;;;;;5002901;28;20239;-88
2022/02/14 17:34:18;;;;;;;11.53;4.07;;;11.00;99.90;;;;;;4988286;28;20189;-89
2022/02/14 17:36:43;;;;;;;12.67;4.23;;;11.10;99.90;;;;;;4989552;28;20178;-90
2022/02/14 17:39:15;;;;;;;13.17;6.63;;;11.10;99.90;;;;;;5016258;28;20270;-89
2022/02/14 17:41:42;;;;;;;11.43;3.00;;;11.20;99.90;;;;;;4998798;28;20538;-89
2022/02/14 17:44:07;;;;;;;7.63;2.83;;;11.20;99.90;;;;;;4999193;28;20207;-89
2022/02/14 17:46:34;;;;;;;9.07;2.60;;;11.20;99.90;;;;;;5010836;28;20176;-88
2022/02/14 17:49:01;;;;;;;9.60;2.70;;;11.10;99.90;;;;;;5005371;28;20191;-86
2022/02/14 17:51:26;;;;;;;8.97;2.47;;;11.10;99.90;;;;;;5013034;28;20224;-88
2022/02/14 18:01:38;;;;;;;5.17;2.40;;;11.00;99.90;;;;;;5094474;22;20574;-82
2022/02/14 18:04:04;;;;;;;9.23;2.23;;;11.00;99.90;;;;;;5023787;28;20193;-85
2022/02/14 18:06:31;;;;;;;8.77;2.30;;;11.10;99.90;;;;;;5026781;28;20243;-83
2022/02/14 18:08:56;;;;;;;7.10;2.00;;;11.20;99.90;;;;;;5006549;28;20181;-83
2022/02/14 18:11:22;;;;;;;13.93;3.27;;;11.30;99.90;;;;;;5012978;28;20537;-83
2022/02/14 18:14:03;;;;;;;13.67;2.87;;;11.20;99.90;;;;;;5012444;28;20243;-82
2022/02/14 18:16:34;;;;;;;7.27;2.43;;;11.10;99.90;;;;;;5012586;28;20251;-83
2022/02/14 18:19:00;;;;;;;9.53;2.60;;;10.90;99.90;;;;;;5012971;28;20220;-82
2022/02/14 18:21:27;;;;;;;11.80;2.80;;;10.70;99.90;;;;;;5014775;28;20211;-82
2022/02/14 18:23:53;;;;;;;12.23;2.63;;;10.50;99.90;;;;;;5014510;28;20195;-82
2022/02/14 18:26:19;;;;;;;7.03;2.90;;;10.40;99.90;;;;;;5014652;28;20176;-82
2022/02/14 18:28:53;;;;;;;9.40;2.47;;;10.40;99.90;;;;;;5032312;28;20295;-82
2022/02/14 18:31:18;;;;;;;8.10;2.90;;;10.40;99.90;;;;;;5010855;28;20204;-83
2022/02/14 18:33:44;;;;;;;8.83;3.13;;;10.60;99.90;;;;;;4997237;28;20641;-82
2022/02/14 18:36:10;;;;;;;11.33;5.00;;;10.60;99.90;;;;;;5014654;28;20183;-83
2022/02/14 18:38:36;;;;;;;12.33;6.03;;;10.70;99.90;;;;;;5011701;28;20216;-84
2022/02/14 18:41:02;;;;;;;7.53;2.67;;;10.70;99.90;;;;;;5000166;28;20201;-83
2022/02/14 18:43:29;;;;;;;16.50;5.40;;;10.70;99.90;;;;;;5011772;28;20287;-84
2022/02/14 18:45:55;;;;;;;13.17;5.30;;;10.60;99.90;;;;;;5000018;28;20259;-83
2022/02/14 18:48:20;;;;;;;12.23;4.20;;;10.60;99.90;;;;;;4994400;28;20229;-83
2022/02/14 18:50:46;;;;;;;17.73;9.13;;;10.60;99.90;;;;;;5006342;28;20263;-83
2022/02/14 18:53:12;;;;;;;14.63;6.23;;;10.70;99.90;;;;;;5008892;28;20264;-84
2022/02/14 18:55:37;;;;;;;14.30;5.67;;;10.70;99.90;;;;;;5011543;28;20548;-83
2022/02/14 18:58:03;;;;;;;9.90;3.70;;;10.80;99.90;;;;;;5011460;28;20205;-82
2022/02/14 19:00:29;;;;;;;16.73;4.77;;;10.80;99.90;;;;;;5014412;28;20227;-83
2022/02/14 19:02:54;;;;;;;11.40;4.17;;;10.80;99.90;;;;;;5014225;28;20196;-83
2022/02/14 19:05:20;;;;;;;13.57;6.80;;;10.70;99.90;;;;;;4995884;28;20268;-82
2022/02/14 19:07:46;;;;;;;15.53;8.43;;;10.80;99.90;;;;;;5013198;28;20242;-82
2022/02/14 19:10:14;;;;;;;12.03;5.33;;;10.90;99.90;;;;;;5014250;28;20712;-82
2022/02/14 19:12:40;;;;;;;11.20;4.60;;;11.00;99.90;;;;;;5014473;28;20680;-85
2022/02/14 19:15:08;;;;;;;11.93;4.37;;;11.00;99.90;;;;;;5004863;28;20208;-82
2022/02/14 19:17:34;;;;;;;17.37;8.97;;;11.00;99.90;;;;;;4998452;28;20225;-84
2022/02/14 19:20:00;;;;;;;14.87;7.23;;;11.10;99.90;;;;;;4998026;28;20185;-84
2022/02/14 19:22:26;;;;;;;9.30;3.40;;;11.00;99.90;;;;;;4997829;28;20200;-83
2022/02/14 19:24:53;;;;;;;10.43;3.93;;;11.00;99.90;;;;;;4998123;28;20689;-82
2022/02/14 19:27:23;;;;;;;10.20;4.43;;;10.90;99.90;;;;;;4998079;28;20544;-83
2022/02/14 19:29:51;;;;;;;9.40;3.50;;;10.80;99.90;;;;;;4998032;28;20215;-84
2022/02/14 19:32:17;;;;;;;8.80;3.97;;;10.80;99.90;;;;;;4999188;28;20276;-82
2022/02/14 19:34:44;;;;;;;10.27;3.23;;;10.70;99.90;;;;;;5003989;28;20288;-82
2022/02/14 19:37:19;;;;;;;8.83;3.27;;;10.80;99.90;;;;;;4997653;28;20181;-83
2022/02/14 19:39:46;;;;;;;11.30;3.00;;;10.90;99.90;;;;;;4997608;28;20173;-82
2022/02/14 19:42:12;;;;;;;10.10;3.47;;;11.00;99.90;;;;;;4999742;28;20192;-83
2022/02/14 19:44:38;;;;;;;9.93;2.90;;;10.80;99.90;;;;;;5035035;28;20720;-82
2022/02/14 19:47:04;;;;;;;10.30;4.83;;;10.70;99.90;;;;;;5015264;28;20212;-82
2022/02/14 19:49:30;;;;;;;8.47;3.10;;;10.70;99.90;;;;;;5014734;28;20519;-83
2022/02/14 19:51:56;;;;;;;13.73;7.03;;;10.70;99.90;;;;;;5011480;28;20559;-82
2022/02/14 19:54:22;;;;;;;12.30;2.70;;;10.60;99.90;;;;;;5034752;28;20212;-83
2022/02/14 19:56:47;;;;;;;10.47;5.50;;;10.50;99.90;;;;;;5001795;28;20661;-83
2022/02/14 19:59:16;;;;;;;12.30;4.13;;;10.40;99.90;;;;;;4997189;28;20252;-81
2022/02/14 20:01:45;;;;;;;12.17;3.70;;;10.40;99.90;;;;;;4996920;28;20241;-83
2022/02/14 20:04:11;;;;;;;17.60;5.70;;;10.40;99.90;;;;;;5023836;28;20724;-83
2022/02/14 20:06:37;;;;;;;8.90;3.17;;;10.50;99.90;;;;;;5017023;28;20180;-84
2022/02/14 20:09:03;;;;;;;27.73;5.10;;;10.30;99.90;;;;;;5016772;28;20546;-84
2022/02/14 20:11:28;;;;;;;13.07;3.77;;;10.10;99.90;;;;;;5017587;28;20185;-83
2022/02/14 20:13:54;;;;;;;27.30;4.83;;;9.60;99.90;;;;;;5017112;28;20175;-84
2022/02/14 20:16:20;;;;;;;16.47;4.83;;;9.00;99.90;;;;;;5016943;28;20222;-85
2022/02/14 20:18:47;;;;;;;15.17;2.90;;;8.90;99.90;;;;;;5016075;28;20214;-84
2022/02/14 20:21:13;;;;;;;8.97;3.00;;;8.90;99.90;;;;;;5014594;28;20171;-85
2022/02/14 20:23:39;;;;;;;7.13;2.50;;;8.90;99.90;;;;;;4997049;28;20255;-84
2022/02/14 20:26:05;;;;;;;6.23;1.70;;;9.00;99.90;;;;;;4996393;28;20667;-83
2022/02/14 20:28:32;;;;;;;7.27;2.67;;;9.10;99.90;;;;;;4996715;28;20609;-84
2022/02/14 20:30:58;;;;;;;10.50;3.03;;;9.20;99.90;;;;;;4997671;28;20184;-85
2022/02/14 20:33:24;;;;;;;9.53;3.93;;;9.20;99.90;;;;;;5007147;28;20270;-84
2022/02/14 20:35:51;;;;;;;7.40;2.60;;;9.20;99.90;;;;;;5016736;28;20175;-84
2022/02/14 20:38:22;;;;;;;18.17;6.47;;;9.30;99.90;;;;;;5033718;28;20706;-84
2022/02/14 20:40:49;;;;;;;26.43;9.63;;;9.10;99.90;;;;;;5016131;28;20623;-83
2022/02/14 20:43:15;;;;;;;8.73;4.33;;;9.00;99.90;;;;;;5016509;28;20679;-83
2022/02/14 20:45:45;;;;;;;8.43;4.60;;;8.90;99.90;;;;;;5015842;28;20194;-84
2022/02/14 20:48:12;;;;;;;11.27;4.00;;;8.90;99.90;;;;;;5016096;28;20183;-84
2022/02/14 20:50:38;;;;;;;10.67;4.30;;;9.00;99.90;;;;;;5016344;28;20270;-83
2022/02/14 20:53:06;;;;;;;16.10;4.93;;;9.10;99.90;;;;;;5015844;28;20271;-84
2022/02/14 20:55:32;;;;;;;60.87;28.03;;;9.00;99.90;;;;;;5015622;28;20593;-83
2022/02/14 20:57:59;;;;;;;25.30;11.93;;;9.00;99.90;;;;;;5016104;28;20224;-83
2022/02/14 21:00:28;;;;;;;7.43;4.13;;;9.10;99.90;;;;;;5015558;28;20265;-83
2022/02/14 21:02:58;;;;;;;13.40;5.93;;;9.10;99.90;;;;;;5011951;28;20576;-83
2022/02/14 21:05:27;;;;;;;24.43;9.23;;;9.10;99.90;;;;;;5014268;28;20211;-83
2022/02/14 21:07:54;;;;;;;9.97;5.23;;;9.10;99.90;;;;;;5033462;28;20322;-83
2022/02/14 21:10:20;;;;;;;14.27;5.07;;;9.00;99.90;;;;;;5033377;28;20186;-83
2022/02/14 21:12:46;;;;;;;14.53;6.03;;;9.00;99.90;;;;;;5004715;28;20188;-84
2022/02/14 21:15:12;;;;;;;16.80;6.03;;;9.00;99.90;;;;;;4996353;28;20242;-84
2022/02/14 21:17:39;;;;;;;17.43;6.43;;;9.00;99.90;;;;;;4996467;28;20243;-84
2022/02/14 21:20:07;;;;;;;17.10;6.77;;;8.90;99.90;;;;;;5014297;28;20688;-84
2022/02/14 21:22:33;;;;;;;15.67;5.83;;;9.00;99.90;;;;;;4995917;28;20192;-83
2022/02/14 21:24:58;;;;;;;15.30;5.97;;;9.00;99.90;;;;;;5013468;28;20188;-84
2022/02/14 21:27:24;;;;;;;17.97;5.70;;;9.10;99.90;;;;;;4995885;28;20191;-83
2022/02/14 21:29:52;;;;;;;11.70;5.90;;;9.00;99.90;;;;;;4995852;28;20691;-84
2022/02/14 21:32:18;;;;;;;13.87;5.07;;;8.90;99.90;;;;;;4995738;28;20191;-83
2022/02/14 21:34:43;;;;;;;13.90;5.20;;;8.80;99.90;;;;;;5030041;28;20183;-83
2022/02/14 21:37:09;;;;;;;9.73;4.30;;;8.70;99.90;;;;;;5014736;28;20224;-85
2022/02/14 21:39:35;;;;;;;14.47;4.03;;;8.70;99.90;;;;;;5014620;28;20190;-84
2022/02/14 21:42:01;;;;;;;8.07;4.00;;;8.70;99.90;;;;;;5015111;28;20238;-83
2022/02/14 21:44:29;;;;;;;7.07;3.27;;;8.70;99.90;;;;;;5032809;28;20212;-83
2022/02/14 21:46:56;;;;;;;10.53;3.30;;;8.60;99.90;;;;;;5015087;28;20650;-83
2022/02/14 21:49:21;;;;;;;9.60;3.27;;;8.60;99.90;;;;;;5014984;28;20230;-83
2022/02/14 21:51:47;;;;;;;9.60;3.13;;;8.60;99.90;;;;;;5007083;28;20201;-84
2022/02/14 21:54:13;;;;;;;8.80;2.57;;;8.60;99.90;;;;;;5003264;28;20589;-83
2022/02/14 21:56:39;;;;;;;8.27;2.50;;;8.60;99.90;;;;;;5014983;28;20180;-83
2022/02/14 21:59:05;;;;;;;5.20;2.37;;;8.60;99.90;;;;;;5015045;28;20222;-83
2022/02/14 22:01:30;;;;;;;8.33;2.43;;;8.50;99.90;;;;;;5026040;28;20318;-83
2022/02/14 22:03:56;;;;;;;4.80;1.90;;;8.60;99.90;;;;;;5001841;28;20189;-84
2022/02/14 22:09:06;;;;;;;8.37;2.30;;;8.80;99.90;;;;;;5033517;28;20533;-84
2022/02/14 22:11:32;;;;;;;4.17;2.10;;;8.80;99.90;;;;;;5014956;28;20191;-83
2022/02/14 22:13:58;;;;;;;6.33;2.13;;;8.80;99.90;;;;;;5015131;28;20171;-84
2022/02/14 22:16:23;;;;;;;8.10;1.80;;;8.80;99.90;;;;;;5032373;28;20184;-83
2022/02/14 22:18:49;;;;;;;6.97;2.07;;;8.90;99.90;;;;;;5032140;28;20221;-83
2022/02/14 22:21:15;;;;;;;8.93;2.43;;;8.80;99.90;;;;;;5032438;28;20176;-83
2022/02/14 22:23:41;;;;;;;9.50;2.10;;;8.60;99.90;;;;;;5014968;28;20189;-84
2022/02/14 22:26:07;;;;;;;6.80;2.17;;;8.70;99.90;;;;;;5014869;28;20634;-83
2022/02/14 22:28:33;;;;;;;10.07;2.23;;;8.80;99.90;;;;;;5032596;28;20184;-84
2022/02/14 22:30:58;;;;;;;4.07;2.03;;;8.70;99.90;;;;;;5015107;28;20601;-84
2022/02/14 22:33:24;;;;;;;6.43;2.10;;;8.60;99.90;;;;;;5012090;28;20186;-84
2022/02/14 22:35:49;;;;;;;5.77;2.43;;;8.70;99.90;;;;;;5012938;28;20183;-83
2022/02/14 22:38:15;;;;;;;3.73;1.90;;;8.70;99.90;;;;;;4993665;28;20605;-83
2022/02/14 22:40:41;;;;;;;9.43;2.20;;;8.70;99.90;;;;;;5003089;28;20245;-84
2022/02/14 22:43:08;;;;;;;5.83;2.13;;;8.80;99.90;;;;;;5014577;28;20656;-84
2022/02/14 22:45:36;;;;;;;7.83;2.20;;;8.80;99.90;;;;;;5014487;28;20186;-84
2022/02/14 22:48:02;;;;;;;7.13;2.20;;;8.70;99.90;;;;;;5004532;28;20195;-83
2022/02/14 22:50:28;;;;;;;5.70;1.80;;;8.70;99.90;;;;;;5015234;28;20660;-83
2022/02/14 22:52:53;;;;;;;6.33;2.00;;;8.80;99.90;;;;;;5015974;28;20220;-83
2022/02/14 22:55:19;;;;;;;9.73;2.13;;;8.70;99.90;;;;;;4998316;28;20186;-84
2022/02/14 22:57:45;;;;;;;7.63;2.30;;;8.80;99.90;;;;;;4997856;28;20712;-81
2022/02/14 23:00:15;;;;;;;5.23;2.03;;;8.80;99.90;;;;;;4998354;28;20179;-83
2022/02/14 23:02:56;;;;;;;8.70;2.67;;;8.90;99.90;;;;;;4998709;28;20580;-84
2022/02/14 23:05:22;;;;;;;5.80;1.97;;;9.00;99.90;;;;;;5017843;28;20186;-84
2022/02/14 23:16:01;;;;;;;9.70;2.50;;;8.80;99.90;;;;;;5035940;28;20222;-83
2022/02/14 23:18:26;;;;;;;7.63;2.13;;;8.80;99.90;;;;;;5017677;28;20222;-84
2022/02/14 23:20:52;;;;;;;6.07;2.30;;;9.00;99.90;;;;;;5018341;28;20640;-83
2022/02/14 23:23:18;;;;;;;6.67;1.93;;;9.00;99.90;;;;;;5017978;28;20179;-83
2022/02/14 23:25:43;;;;;;;10.63;2.20;;;9.10;99.90;;;;;;5018091;28;20236;-82
2022/02/14 23:28:09;;;;;;;8.47;2.23;;;9.00;99.90;;;;;;5018098;28;20612;-84
2022/02/14 23:30:34;;;;;;;5.57;2.47;;;9.20;99.90;;;;;;5017867;28;20622;-83
2022/02/14 23:33:00;;;;;;;5.37;2.30;;;9.20;99.90;;;;;;5017853;28;20187;-84
2022/02/14 23:35:26;;;;;;;6.10;2.20;;;9.00;99.90;;;;;;5018026;28;20595;-83
2022/02/14 23:37:52;;;;;;;5.03;2.30;;;9.00;99.90;;;;;;5017949;28;20309;-84
2022/02/14 23:40:18;;;;;;;10.27;2.83;;;9.00;99.90;;;;;;5015739;28;20302;-88
2022/02/14 23:42:44;;;;;;;7.57;2.23;;;8.90;99.90;;;;;;5006471;28;20189;-89
2022/02/14 23:45:09;;;;;;;9.37;2.80;;;8.90;99.90;;;;;;5009318;28;20186;-89
2022/02/14 23:47:35;;;;;;;6.20;2.40;;;8.80;99.90;;;;;;5001594;28;20193;-88
2022/02/14 23:50:01;;;;;;;8.00;3.07;;;8.80;99.90;;;;;;5011413;28;20200;-89
2022/02/14 23:52:26;;;;;;;7.97;2.90;;;8.80;99.90;;;;;;5006978;28;20183;-89
2022/02/14 23:54:52;;;;;;;7.97;3.17;;;8.70;99.90;;;;;;4998406;28;20270;-89
2022/02/14 23:57:18;;;;;;;5.53;2.83;;;8.70;99.90;;;;;;4998285;28;20270;-89
2022/02/14 23:59:43;;;;;;;6.93;2.93;;;8.60;99.90;;;;;;4998302;28;20198;-88
